Time;durP1;ratioP1;P1;durP2;ratioP2;P2;SDS_P1;SDS_P2;PMS_P1;PMS_P2;Temp;Humidity;BMP_temperature;BMP_pressure;BME280_temperature;BME280_humidity;BME280_pressure;Samples;Min_cycle;Max_cycle;Signal;HPM_P1;HPM_P2
2020/12/03 00:01:31;;;;;;;78.32;7.85;;;;;;;;;;5060749;28;20017;-63
2020/12/03 00:04:06;;;;;;;78.93;8.63;;;;;;;;;;5054880;28;20033;-62
2020/12/03 00:06:34;;;;;;;74.97;7.63;;;;;;;;;;5058865;28;20043;-62
2020/12/03 00:09:03;;;;;;;85.50;8.57;;;;;;;;;;5057353;28;20016;-61
2020/12/03 00:11:33;;;;;;;82.63;8.88;;;;;;;;;;5064500;28;20111;-64
2020/12/03 00:14:00;;;;;;;75.93;8.77;;;;;;;;;;5066016;28;20090;-59
2020/12/03 00:16:31;;;;;;;92.07;9.57;;;;;;;;;;5060816;28;20051;-60
2020/12/03 00:18:58;;;;;;;76.45;7.75;;;;;;;;;;5056496;28;20021;-59
2020/12/03 00:21:54;;;;;;;72.72;9.50;;;;;;;;;;5057992;28;20028;-55
2020/12/03 00:24:25;;;;;;;67.00;9.02;;;;;;;;;;5047872;28;20025;-59
2020/12/03 00:26:53;;;;;;;87.93;9.45;;;;;;;;;;5058060;28;20063;-61
2020/12/03 00:29:20;;;;;;;81.50;8.77;;;;;;;;;;5057153;28;20054;-61
2020/12/03 00:31:48;;;;;;;82.82;8.82;;;;;;;;;;5052682;28;20031;-61
2020/12/03 00:34:15;;;;;;;88.50;9.98;;;;;;;;;;5236347;22;20064;-59
2020/12/03 00:36:42;;;;;;;92.47;10.73;;;;;;;;;;5073874;28;20107;-62
2020/12/03 00:39:11;;;;;;;106.40;10.85;;;;;;;;;;5085783;28;20034;-60
2020/12/03 00:41:38;;;;;;;121.88;13.98;;;;;;;;;;5085043;28;20020;-63
2020/12/03 00:44:05;;;;;;;223.57;21.52;;;;;;;;;;5087121;28;20391;-61
2020/12/03 00:46:34;;;;;;;235.13;23.10;;;;;;;;;;5085111;28;20024;-60
2020/12/03 00:49:01;;;;;;;186.57;21.42;;;;;;;;;;5241611;22;20060;-64
2020/12/03 00:51:29;;;;;;;200.70;19.80;;;;;;;;;;5018992;28;20088;-59
2020/12/03 00:53:56;;;;;;;131.35;15.73;;;;;;;;;;5018382;28;20030;-59
2020/12/03 00:56:23;;;;;;;112.97;14.68;;;;;;;;;;5021458;28;20036;-60
2020/12/03 00:58:50;;;;;;;169.65;18.60;;;;;;;;;;5026797;28;20075;-60
2020/12/03 01:01:17;;;;;;;284.70;28.90;;;;;;;;;;5028788;28;20030;-63
2020/12/03 01:03:44;;;;;;;452.90;46.65;;;;;;;;;;5024944;28;20065;-67
2020/12/03 01:06:12;;;;;;;329.98;35.17;;;;;;;;;;5005823;28;20029;-63
2020/12/03 01:08:39;;;;;;;325.33;33.40;;;;;;;;;;5028136;28;20511;-65
2020/12/03 01:11:06;;;;;;;281.40;29.10;;;;;;;;;;5023734;28;20025;-62
2020/12/03 01:13:33;;;;;;;262.27;25.40;;;;;;;;;;5022900;28;20030;-64
2020/12/03 01:16:00;;;;;;;288.65;30.23;;;;;;;;;;5025810;28;20026;-61
2020/12/03 01:18:27;;;;;;;195.75;23.88;;;;;;;;;;5023002;28;20037;-61
2020/12/03 01:20:54;;;;;;;204.32;22.85;;;;;;;;;;5028450;28;20049;-60
2020/12/03 01:23:21;;;;;;;274.60;27.00;;;;;;;;;;5021365;28;20022;-60
2020/12/03 01:25:48;;;;;;;205.93;25.08;;;;;;;;;;5017879;28;20393;-62
2020/12/03 01:28:15;;;;;;;176.98;20.77;;;;;;;;;;5023671;28;20033;-59
2020/12/03 01:30:42;;;;;;;197.15;22.77;;;;;;;;;;5022646;28;20021;-61
2020/12/03 01:33:09;;;;;;;174.52;19.63;;;;;;;;;;5022291;28;20102;-63
2020/12/03 01:35:36;;;;;;;168.88;19.90;;;;;;;;;;5025176;28;20037;-63
2020/12/03 01:38:03;;;;;;;154.70;21.08;;;;;;;;;;5023289;28;20469;-62
2020/12/03 01:40:30;;;;;;;147.82;21.13;;;;;;;;;;5021507;28;20112;-62
2020/12/03 01:42:57;;;;;;;131.93;17.95;;;;;;;;;;5025322;28;20048;-62
2020/12/03 01:45:42;;;;;;;164.05;19.45;;;;;;;;;;5022799;28;20052;-63
2020/12/03 01:48:25;;;;;;;167.27;19.38;;;;;;;;;;5023963;28;20112;-63
2020/12/03 01:50:52;;;;;;;136.30;17.42;;;;;;;;;;5025384;28;20050;-62
2020/12/03 01:53:20;;;;;;;188.32;24.13;;;;;;;;;;5021752;28;20025;-62
2020/12/03 01:55:50;;;;;;;132.70;21.70;;;;;;;;;;5031160;28;20543;-63
2020/12/03 01:58:44;;;;;;;192.07;28.90;;;;;;;;;;5026599;28;20464;-63
2020/12/03 02:01:12;;;;;;;166.00;27.73;;;;;;;;;;5024293;28;20126;-63
2020/12/03 02:03:49;;;;;;;178.85;29.95;;;;;;;;;;5025225;28;20021;-63
2020/12/03 02:06:17;;;;;;;176.27;31.42;;;;;;;;;;5028865;28;20029;-63
2020/12/03 02:08:44;;;;;;;215.52;36.75;;;;;;;;;;5012719;28;20156;-63
2020/12/03 02:11:12;;;;;;;239.50;38.10;;;;;;;;;;5027735;28;20032;-63
2020/12/03 02:16:43;;;;;;;165.95;35.25;;;;;;;;;;5022016;28;20040;-60
2020/12/03 02:19:18;;;;;;;145.68;32.85;;;;;;;;;;5030181;28;20075;-60
2020/12/03 02:21:45;;;;;;;189.55;35.47;;;;;;;;;;5024350;28;20473;-61
2020/12/03 02:24:12;;;;;;;135.77;30.55;;;;;;;;;;5028934;28;20041;-60
2020/12/03 02:26:47;;;;;;;131.10;29.83;;;;;;;;;;5027160;28;20116;-60
2020/12/03 02:29:16;;;;;;;134.60;27.55;;;;;;;;;;5026141;28;20477;-59
2020/12/03 02:31:43;;;;;;;117.22;24.88;;;;;;;;;;5025414;28;20480;-60
2020/12/03 02:34:10;;;;;;;129.63;25.52;;;;;;;;;;5028065;28;20041;-60
2020/12/03 02:36:37;;;;;;;133.63;25.55;;;;;;;;;;5028057;28;20059;-62
2020/12/03 02:39:05;;;;;;;250.75;35.78;;;;;;;;;;5030092;28;20053;-59
2020/12/03 02:41:32;;;;;;;161.32;25.70;;;;;;;;;;5028078;28;20024;-60
2020/12/03 02:43:59;;;;;;;167.90;26.27;;;;;;;;;;5025148;28;20056;-58
2020/12/03 02:46:26;;;;;;;124.63;22.45;;;;;;;;;;5028801;28;20021;-62
2020/12/03 02:48:53;;;;;;;134.23;23.88;;;;;;;;;;5026980;28;20057;-57
2020/12/03 02:51:20;;;;;;;109.22;22.45;;;;;;;;;;5030253;28;20090;-60
2020/12/03 02:53:47;;;;;;;136.77;24.95;;;;;;;;;;5026157;28;20041;-60
2020/12/03 02:56:14;;;;;;;127.95;23.05;;;;;;;;;;5030231;28;20026;-58
2020/12/03 02:58:41;;;;;;;155.75;22.73;;;;;;;;;;5028187;28;20045;-58
2020/12/03 03:01:08;;;;;;;146.57;21.65;;;;;;;;;;5028746;28;20029;-60
2020/12/03 03:03:35;;;;;;;214.88;30.10;;;;;;;;;;5020795;28;20029;-58
2020/12/03 03:06:02;;;;;;;134.95;23.27;;;;;;;;;;5031355;28;20025;-59
2020/12/03 03:08:30;;;;;;;124.47;21.92;;;;;;;;;;5031645;28;20028;-62
2020/12/03 03:10:57;;;;;;;118.40;21.38;;;;;;;;;;5032030;28;20037;-62
2020/12/03 03:13:24;;;;;;;151.13;24.08;;;;;;;;;;5031421;28;20025;-65
2020/12/03 03:15:51;;;;;;;135.63;23.40;;;;;;;;;;5031730;28;20112;-64
2020/12/03 03:18:21;;;;;;;139.23;23.45;;;;;;;;;;5029925;28;20088;-64
2020/12/03 03:20:49;;;;;;;121.38;22.25;;;;;;;;;;5032744;28;20025;-63
2020/12/03 03:23:17;;;;;;;109.20;22.33;;;;;;;;;;5023687;28;20075;-60
2020/12/03 03:25:45;;;;;;;122.53;22.13;;;;;;;;;;5031342;28;20401;-60
2020/12/03 03:28:13;;;;;;;167.73;27.85;;;;;;;;;;5024070;28;20022;-60
2020/12/03 03:30:41;;;;;;;122.78;22.70;;;;;;;;;;5030105;28;20087;-60
2020/12/03 03:33:09;;;;;;;134.80;23.42;;;;;;;;;;5030377;28;20289;-60
2020/12/03 03:35:36;;;;;;;111.00;20.70;;;;;;;;;;5020915;28;20080;-62
2020/12/03 03:38:04;;;;;;;119.68;19.92;;;;;;;;;;5030170;28;20021;-61
2020/12/03 03:40:32;;;;;;;128.93;20.80;;;;;;;;;;5029103;28;20029;-61
2020/12/03 03:42:59;;;;;;;102.38;16.67;;;;;;;;;;5026041;28;20029;-60
2020/12/03 03:45:27;;;;;;;116.45;17.08;;;;;;;;;;5019899;28;20021;-60
2020/12/03 03:47:55;;;;;;;105.40;17.73;;;;;;;;;;5030401;28;20025;-59
2020/12/03 03:50:22;;;;;;;118.75;16.45;;;;;;;;;;5031049;28;20046;-60
2020/12/03 03:52:49;;;;;;;133.90;16.50;;;;;;;;;;5031738;28;20035;-60
2020/12/03 03:55:16;;;;;;;106.28;13.02;;;;;;;;;;5030111;28;20128;-64
2020/12/03 03:57:43;;;;;;;99.68;13.57;;;;;;;;;;5030077;28;20113;-61
2020/12/03 04:00:10;;;;;;;88.57;11.52;;;;;;;;;;5031229;28;20033;-62
2020/12/03 04:02:37;;;;;;;79.82;11.73;;;;;;;;;;5030744;28;20477;-63
2020/12/03 04:05:04;;;;;;;82.68;12.60;;;;;;;;;;5030154;28;20104;-61
2020/12/03 04:07:31;;;;;;;93.03;13.38;;;;;;;;;;5031684;28;20086;-63
2020/12/03 04:09:58;;;;;;;94.60;12.57;;;;;;;;;;5031903;28;20025;-62
2020/12/03 04:12:25;;;;;;;99.93;12.32;;;;;;;;;;5024860;28;20166;-61
2020/12/03 04:14:53;;;;;;;85.25;10.35;;;;;;;;;;5012849;28;20053;-62
2020/12/03 04:17:20;;;;;;;169.40;18.20;;;;;;;;;;5024594;28;20036;-62
2020/12/03 04:19:47;;;;;;;119.82;14.18;;;;;;;;;;5032368;28;20104;-61
2020/12/03 04:22:14;;;;;;;159.65;18.73;;;;;;;;;;5027410;28;20361;-62
2020/12/03 04:24:41;;;;;;;146.57;14.70;;;;;;;;;;5031549;28;20030;-61
2020/12/03 04:27:08;;;;;;;99.35;13.23;;;;;;;;;;5030858;28;20376;-61
2020/12/03 04:29:35;;;;;;;131.15;14.98;;;;;;;;;;5012067;28;20432;-62
2020/12/03 04:32:02;;;;;;;100.32;11.55;;;;;;;;;;5031762;28;20425;-62
2020/12/03 04:34:28;;;;;;;88.93;10.52;;;;;;;;;;5031829;28;20092;-61
2020/12/03 04:36:55;;;;;;;70.43;9.38;;;;;;;;;;5032084;28;20036;-61
2020/12/03 04:39:22;;;;;;;58.72;9.30;;;;;;;;;;5032063;28;20431;-63
2020/12/03 04:41:50;;;;;;;76.38;9.45;;;;;;;;;;5031841;28;20389;-62
2020/12/03 04:44:27;;;;;;;58.03;7.75;;;;;;;;;;5031603;28;20032;-61
2020/12/03 04:47:04;;;;;;;55.88;7.78;;;;;;;;;;5030240;28;20436;-61
2020/12/03 04:49:34;;;;;;;50.78;8.40;;;;;;;;;;5030570;28;20128;-62
2020/12/03 04:52:23;;;;;;;70.75;9.25;;;;;;;;;;5031784;28;20034;-61
2020/12/03 04:54:56;;;;;;;78.85;10.35;;;;;;;;;;5031592;28;20044;-61
2020/12/03 04:57:32;;;;;;;91.05;12.82;;;;;;;;;;5031986;28;20029;-61
2020/12/03 05:00:15;;;;;;;72.68;12.82;;;;;;;;;;5031489;28;20032;-61
2020/12/03 05:03:06;;;;;;;75.07;12.35;;;;;;;;;;5031898;28;20017;-62
2020/12/03 05:05:47;;;;;;;67.50;11.30;;;;;;;;;;5030994;28;20025;-62
2020/12/03 05:08:19;;;;;;;54.85;10.48;;;;;;;;;;5031993;28;20032;-62
2020/12/03 05:10:47;;;;;;;64.13;10.75;;;;;;;;;;5031251;28;20108;-62
2020/12/03 05:13:34;;;;;;;59.13;11.68;;;;;;;;;;5031772;28;20025;-61
2020/12/03 05:16:12;;;;;;;44.30;10.68;;;;;;;;;;5030732;28;20037;-61
2020/12/03 05:18:54;;;;;;;52.03;11.70;;;;;;;;;;5030624;28;20033;-62
2020/12/03 05:21:28;;;;;;;48.55;10.77;;;;;;;;;;5031189;28;20113;-62
2020/12/03 05:23:56;;;;;;;47.45;9.75;;;;;;;;;;5031390;28;20022;-61
2020/12/03 05:26:25;;;;;;;62.67;10.18;;;;;;;;;;5030576;28;20075;-61
2020/12/03 05:28:52;;;;;;;52.53;9.95;;;;;;;;;;5031377;28;20083;-62
2020/12/03 05:31:23;;;;;;;68.05;9.35;;;;;;;;;;5031048;28;20018;-61
2020/12/03 05:33:50;;;;;;;57.28;9.13;;;;;;;;;;5031508;28;20073;-61
2020/12/03 05:36:33;;;;;;;42.50;8.35;;;;;;;;;;5030782;28;20018;-61
2020/12/03 05:39:01;;;;;;;44.30;7.75;;;;;;;;;;5013422;28;20596;-61
2020/12/03 05:41:30;;;;;;;46.60;7.65;;;;;;;;;;5031003;28;20033;-61
2020/12/03 05:43:57;;;;;;;42.80;6.90;;;;;;;;;;5031437;28;20484;-61
2020/12/03 05:46:24;;;;;;;36.47;6.15;;;;;;;;;;5030594;28;20039;-61
2020/12/03 05:48:55;;;;;;;31.13;5.97;;;;;;;;;;5030782;28;20044;-61
2020/12/03 05:51:27;;;;;;;35.25;5.32;;;;;;;;;;5031035;28;20102;-61
2020/12/03 05:53:57;;;;;;;26.92;5.00;;;;;;;;;;5031117;28;20373;-61
2020/12/03 05:56:25;;;;;;;25.75;4.60;;;;;;;;;;5030741;28;20021;-61
2020/12/03 05:58:52;;;;;;;29.35;4.20;;;;;;;;;;5013140;28;20437;-61
2020/12/03 06:01:23;;;;;;;24.70;4.53;;;;;;;;;;5031579;28;20504;-61
2020/12/03 06:04:09;;;;;;;24.97;4.67;;;;;;;;;;5012915;28;20435;-61
2020/12/03 06:06:54;;;;;;;24.67;4.85;;;;;;;;;;5030942;28;20057;-62
2020/12/03 06:09:39;;;;;;;24.88;4.05;;;;;;;;;;5030799;28;20047;-61
2020/12/03 06:12:22;;;;;;;24.13;3.45;;;;;;;;;;5031175;28;20029;-61
2020/12/03 06:15:07;;;;;;;21.55;3.50;;;;;;;;;;5030654;28;20030;-61
2020/12/03 06:17:40;;;;;;;25.77;3.58;;;;;;;;;;5030883;28;20026;-61
2020/12/03 06:20:33;;;;;;;19.52;3.25;;;;;;;;;;5030611;28;20022;-61
2020/12/03 06:23:14;;;;;;;15.80;3.25;;;;;;;;;;5030777;28;20029;-62
2020/12/03 06:25:46;;;;;;;15.13;2.72;;;;;;;;;;5030759;28;20026;-61
2020/12/03 06:28:31;;;;;;;14.55;3.92;;;;;;;;;;5031515;28;20044;-62
2020/12/03 06:31:04;;;;;;;18.02;2.95;;;;;;;;;;5034510;28;20022;-61
2020/12/03 06:33:37;;;;;;;17.15;2.20;;;;;;;;;;5034417;28;20033;-61
2020/12/03 06:36:22;;;;;;;13.10;2.50;;;;;;;;;;5034196;28;20520;-61
2020/12/03 06:39:07;;;;;;;25.65;2.85;;;;;;;;;;5034012;28;20013;-60
2020/12/03 06:41:34;;;;;;;11.68;4.15;;;;;;;;;;5016486;28;20416;-61
2020/12/03 06:44:22;;;;;;;18.63;4.18;;;;;;;;;;5033741;28;20096;-61
2020/12/03 06:46:49;;;;;;;18.70;2.95;;;;;;;;;;5034129;28;20423;-61
2020/12/03 06:49:42;;;;;;;20.65;3.85;;;;;;;;;;5033669;28;20034;-61
2020/12/03 06:52:18;;;;;;;14.15;3.95;;;;;;;;;;5003991;28;20050;-61
2020/12/03 06:54:53;;;;;;;16.15;3.20;;;;;;;;;;5033486;28;20041;-61
2020/12/03 06:57:38;;;;;;;14.90;3.53;;;;;;;;;;5033449;28;20029;-60
2020/12/03 07:00:09;;;;;;;16.65;2.95;;;;;;;;;;5033641;28;20061;-60
2020/12/03 07:02:54;;;;;;;14.48;3.40;;;;;;;;;;5016028;28;20028;-60
2020/12/03 07:05:40;;;;;;;15.38;3.17;;;;;;;;;;5033674;28;20417;-60
2020/12/03 07:08:15;;;;;;;17.15;3.70;;;;;;;;;;5033620;28;20057;-61
2020/12/03 07:10:42;;;;;;;13.43;4.60;;;;;;;;;;5240404;22;20117;-62
2020/12/03 07:13:29;;;;;;;16.67;3.97;;;;;;;;;;5069540;28;20032;-62
2020/12/03 07:16:15;;;;;;;17.30;4.68;;;;;;;;;;5071714;28;20070;-61
2020/12/03 07:18:55;;;;;;;18.35;4.45;;;;;;;;;;5070941;28;20379;-61
2020/12/03 07:21:37;;;;;;;18.48;4.50;;;;;;;;;;5073440;28;20425;-61
2020/12/03 07:24:08;;;;;;;14.57;4.32;;;;;;;;;;5072380;28;20479;-61
2020/12/03 07:26:47;;;;;;;14.52;3.80;;;;;;;;;;5071798;28;20024;-60
2020/12/03 07:29:20;;;;;;;15.23;4.22;;;;;;;;;;5072692;28;20027;-62
2020/12/03 07:31:50;;;;;;;21.15;4.88;;;;;;;;;;5073424;28;20394;-62
2020/12/03 07:34:29;;;;;;;24.95;6.07;;;;;;;;;;5072716;28;20037;-62
2020/12/03 07:37:05;;;;;;;20.75;6.60;;;;;;;;;;5072711;28;20079;-61
2020/12/03 07:39:35;;;;;;;28.50;8.00;;;;;;;;;;5072467;28;20507;-62
2020/12/03 07:42:05;;;;;;;21.48;6.90;;;;;;;;;;5073025;28;20021;-62
2020/12/03 07:44:42;;;;;;;23.83;7.63;;;;;;;;;;5072604;28;20063;-62
2020/12/03 07:47:22;;;;;;;22.10;7.10;;;;;;;;;;5072653;28;20027;-63
2020/12/03 07:49:50;;;;;;;28.58;7.50;;;;;;;;;;5072483;28;20031;-62
2020/12/03 07:52:20;;;;;;;19.17;7.20;;;;;;;;;;5073079;28;20123;-62
2020/12/03 07:54:47;;;;;;;20.73;7.38;;;;;;;;;;5072038;28;20067;-61
2020/12/03 07:57:24;;;;;;;31.92;10.00;;;;;;;;;;5082018;28;20020;-62
2020/12/03 07:59:51;;;;;;;35.80;11.25;;;;;;;;;;5072904;28;20056;-61
2020/12/03 08:02:37;;;;;;;32.70;10.82;;;;;;;;;;5070952;28;20028;-63
2020/12/03 08:05:24;;;;;;;34.63;9.73;;;;;;;;;;5072679;28;20021;-62
2020/12/03 08:07:55;;;;;;;21.50;7.95;;;;;;;;;;5072364;28;20016;-61
2020/12/03 08:10:51;;;;;;;20.45;8.13;;;;;;;;;;5057638;28;20068;-62
2020/12/03 08:13:25;;;;;;;25.27;6.68;;;;;;;;;;5034944;28;20032;-62
2020/12/03 08:16:00;;;;;;;20.98;7.20;;;;;;;;;;5051404;28;20036;-61
2020/12/03 08:18:38;;;;;;;26.23;6.75;;;;;;;;;;5051033;28;20021;-61
2020/12/03 08:21:05;;;;;;;24.88;6.40;;;;;;;;;;5051876;28;20578;-62
2020/12/03 08:23:32;;;;;;;23.00;6.45;;;;;;;;;;5051938;28;20025;-62
2020/12/03 08:25:59;;;;;;;22.35;6.20;;;;;;;;;;5052287;28;20024;-61
2020/12/03 08:28:31;;;;;;;33.83;6.07;;;;;;;;;;5051490;28;20021;-61
2020/12/03 08:30:57;;;;;;;20.15;5.82;;;;;;;;;;5051798;28;20033;-61
2020/12/03 08:33:31;;;;;;;14.95;5.35;;;;;;;;;;5051830;28;20469;-63
2020/12/03 08:35:59;;;;;;;18.85;5.38;;;;;;;;;;5051974;28;20041;-61
2020/12/03 08:38:29;;;;;;;20.88;5.68;;;;;;;;;;5051327;28;20092;-61
2020/12/03 08:40:58;;;;;;;17.65;5.90;;;;;;;;;;5050497;28;20527;-61
2020/12/03 08:43:25;;;;;;;94.00;11.63;;;;;;;;;;5051492;28;20032;-62
2020/12/03 08:46:01;;;;;;;25.25;6.20;;;;;;;;;;5050371;28;20025;-62
2020/12/03 08:48:31;;;;;;;27.63;6.20;;;;;;;;;;5050370;28;20044;-60
2020/12/03 08:50:59;;;;;;;31.75;6.53;;;;;;;;;;5051509;28;20025;-62
2020/12/03 08:53:28;;;;;;;24.95;6.03;;;;;;;;;;5049505;28;20108;-62
2020/12/03 08:55:57;;;;;;;19.23;5.78;;;;;;;;;;5050424;28;20044;-63
2020/12/03 08:58:25;;;;;;;24.83;6.15;;;;;;;;;;5050963;28;20414;-62
2020/12/03 09:00:53;;;;;;;28.92;5.68;;;;;;;;;;5051060;28;20100;-62
2020/12/03 09:03:22;;;;;;;21.05;6.68;;;;;;;;;;5051736;28;20025;-62
2020/12/03 09:05:50;;;;;;;28.48;6.93;;;;;;;;;;5051056;28;20021;-61
2020/12/03 09:08:21;;;;;;;23.20;6.00;;;;;;;;;;5051456;28;20052;-61
2020/12/03 09:10:49;;;;;;;19.20;6.22;;;;;;;;;;5050372;28;20094;-62
2020/12/03 09:13:17;;;;;;;19.10;6.40;;;;;;;;;;5051466;28;20116;-63
2020/12/03 09:15:46;;;;;;;17.38;5.82;;;;;;;;;;5050901;28;20029;-62
2020/12/03 09:18:13;;;;;;;24.35;7.35;;;;;;;;;;5051154;28;20033;-63
2020/12/03 09:20:44;;;;;;;25.13;7.10;;;;;;;;;;5051313;28;20017;-65
2020/12/03 09:23:17;;;;;;;26.55;7.35;;;;;;;;;;5050963;28;20158;-63
2020/12/03 09:25:45;;;;;;;34.30;7.43;;;;;;;;;;5051608;28;20031;-63
2020/12/03 09:28:12;;;;;;;24.38;6.05;;;;;;;;;;5050690;28;20048;-64
2020/12/03 09:30:41;;;;;;;24.75;6.75;;;;;;;;;;5049536;28;20021;-65
2020/12/03 09:33:10;;;;;;;22.67;5.75;;;;;;;;;;5050982;28;20036;-62
2020/12/03 09:35:38;;;;;;;18.77;5.97;;;;;;;;;;5051241;28;20477;-63
2020/12/03 09:38:08;;;;;;;21.35;6.32;;;;;;;;;;5051055;28;20021;-64
2020/12/03 09:40:35;;;;;;;20.25;5.90;;;;;;;;;;5050679;28;20388;-64
2020/12/03 09:43:03;;;;;;;23.00;5.82;;;;;;;;;;5050555;28;20032;-61
2020/12/03 09:45:34;;;;;;;28.98;6.78;;;;;;;;;;5051202;28;20013;-62
2020/12/03 09:48:02;;;;;;;24.65;5.85;;;;;;;;;;5050386;28;20017;-61
2020/12/03 09:50:29;;;;;;;34.00;6.30;;;;;;;;;;5051023;28;20017;-62
2020/12/03 09:52:56;;;;;;;111.00;13.90;;;;;;;;;;5050413;28;20365;-61
2020/12/03 09:55:23;;;;;;;50.15;7.88;;;;;;;;;;5050884;28;20025;-61
2020/12/03 09:57:54;;;;;;;79.28;10.18;;;;;;;;;;5051199;28;20104;-61
2020/12/03 10:00:26;;;;;;;126.80;15.13;;;;;;;;;;5050224;28;20496;-61
2020/12/03 10:03:12;;;;;;;116.55;12.88;;;;;;;;;;5049763;28;20048;-63
2020/12/03 10:05:39;;;;;;;102.10;13.23;;;;;;;;;;5054592;28;20464;-61
2020/12/03 10:08:06;;;;;;;77.22;10.95;;;;;;;;;;5054672;28;20083;-62
2020/12/03 10:10:55;;;;;;;76.38;10.25;;;;;;;;;;5053993;28;20119;-62
2020/12/03 10:13:37;;;;;;;66.68;8.68;;;;;;;;;;5054922;28;20028;-62
2020/12/03 10:16:08;;;;;;;63.75;7.68;;;;;;;;;;5053087;28;20488;-62
2020/12/03 10:18:35;;;;;;;58.92;8.70;;;;;;;;;;5053315;28;20029;-62
2020/12/03 10:21:02;;;;;;;52.05;7.03;;;;;;;;;;5053699;28;20078;-62
2020/12/03 10:23:35;;;;;;;51.85;7.30;;;;;;;;;;5054561;28;20532;-62
2020/12/03 10:26:16;;;;;;;45.15;6.65;;;;;;;;;;5054027;28;20068;-62
2020/12/03 10:29:06;;;;;;;50.60;6.75;;;;;;;;;;5054164;28;20100;-62
2020/12/03 10:31:33;;;;;;;55.72;8.73;;;;;;;;;;5043446;28;20068;-61
2020/12/03 10:34:01;;;;;;;73.55;7.75;;;;;;;;;;5054147;28;20029;-61
2020/12/03 10:36:48;;;;;;;74.50;9.70;;;;;;;;;;5054091;28;20028;-63
2020/12/03 10:39:16;;;;;;;80.18;8.93;;;;;;;;;;5040734;28;20112;-62
2020/12/03 10:41:46;;;;;;;80.55;10.93;;;;;;;;;;5053864;28;20032;-62
2020/12/03 10:44:17;;;;;;;94.05;10.13;;;;;;;;;;5054061;28;20025;-64
2020/12/03 10:46:48;;;;;;;77.68;11.07;;;;;;;;;;5054252;28;20021;-63
2020/12/03 10:49:17;;;;;;;85.88;12.73;;;;;;;;;;5048591;28;20021;-64
2020/12/03 10:51:44;;;;;;;96.97;12.57;;;;;;;;;;5049021;28;20381;-62
2020/12/03 10:54:18;;;;;;;74.60;11.23;;;;;;;;;;5048264;28;20025;-62
2020/12/03 10:56:52;;;;;;;87.93;12.40;;;;;;;;;;5051798;28;20029;-65
2020/12/03 10:59:32;;;;;;;88.25;11.52;;;;;;;;;;5052806;28;20070;-61
2020/12/03 11:02:00;;;;;;;37.42;6.20;;;;;;;;;;5032738;28;20041;-60
2020/12/03 11:04:28;;;;;;;40.53;5.25;;;;;;;;;;5032864;28;20093;-60
2020/12/03 11:06:57;;;;;;;33.78;5.72;;;;;;;;;;5033332;28;20025;-61
2020/12/03 11:09:25;;;;;;;35.95;3.45;;;;;;;;;;5036870;28;20041;-66
2020/12/03 11:11:52;;;;;;;31.17;4.78;;;;;;;;;;5053289;28;20028;-62
2020/12/03 11:14:19;;;;;;;15.65;3.33;;;;;;;;;;5051867;28;20076;-62
2020/12/03 11:17:22;;;;;;;14.55;2.75;;;;;;;;;;5052954;28;20472;-64
2020/12/03 11:19:58;;;;;;;27.23;3.50;;;;;;;;;;4991029;28;20100;-63
2020/12/03 11:22:43;;;;;;;15.85;2.42;;;;;;;;;;5040850;28;20037;-66
2020/12/03 11:25:17;;;;;;;50.30;6.53;;;;;;;;;;5032663;28;20026;-67
2020/12/03 11:27:44;;;;;;;36.30;3.50;;;;;;;;;;5033447;28;20540;-60
2020/12/03 11:30:18;;;;;;;19.40;2.55;;;;;;;;;;5032756;28;20014;-70
2020/12/03 11:32:49;;;;;;;18.10;2.30;;;;;;;;;;5041816;28;20499;-59
2020/12/03 11:35:25;;;;;;;26.20;2.40;;;;;;;;;;5053088;28;20040;-66
2020/12/03 11:37:53;;;;;;;21.38;2.45;;;;;;;;;;5052347;28;20099;-62
2020/12/03 11:40:28;;;;;;;86.85;9.50;;;;;;;;;;5051443;28;20044;-63
2020/12/03 11:43:13;;;;;;;33.05;3.63;;;;;;;;;;5052205;28;20116;-66
2020/12/03 11:48:42;;;;;;;26.08;3.30;;;;;;;;;;5008058;28;20075;-65
2020/12/03 11:51:09;;;;;;;28.63;3.20;;;;;;;;;;5052061;28;20496;-62
2020/12/03 11:53:36;;;;;;;39.40;4.05;;;;;;;;;;5052311;28;20032;-66
2020/12/03 11:56:03;;;;;;;18.65;2.28;;;;;;;;;;5038633;28;20037;-62
2020/12/03 11:58:30;;;;;;;37.45;4.93;;;;;;;;;;5060279;28;20025;-62
2020/12/03 12:01:11;;;;;;;26.38;3.20;;;;;;;;;;5070834;28;20029;-60
2020/12/03 12:03:40;;;;;;;31.85;3.58;;;;;;;;;;5051917;28;20071;-62
2020/12/03 12:06:28;;;;;;;21.88;2.42;;;;;;;;;;5052254;28;20024;-62
2020/12/03 12:09:22;;;;;;;60.67;6.25;;;;;;;;;;5050183;28;20104;-63
2020/12/03 12:11:46;;;;;;;45.22;4.22;;;;;;;;;;5051371;28;20048;-63
2020/12/03 12:14:13;;;;;;;32.60;3.63;;;;;;;;;;5051563;28;20040;-66
2020/12/03 12:16:40;;;;;;;28.08;2.65;;;;;;;;;;5052360;28;20024;-64
2020/12/03 12:19:07;;;;;;;24.02;2.63;;;;;;;;;;5051619;28;20059;-62
2020/12/03 12:21:36;;;;;;;26.02;3.72;;;;;;;;;;5051826;28;20518;-68
2020/12/03 12:24:03;;;;;;;37.58;3.13;;;;;;;;;;5048201;28;20029;-63
2020/12/03 12:26:30;;;;;;;19.30;2.42;;;;;;;;;;5040876;28;20116;-63
2020/12/03 12:28:57;;;;;;;35.65;3.42;;;;;;;;;;5041607;28;20028;-57
2020/12/03 12:31:24;;;;;;;16.80;1.50;;;;;;;;;;5040020;28;20033;-63
2020/12/03 12:33:51;;;;;;;18.05;2.15;;;;;;;;;;5041483;28;20009;-60
2020/12/03 12:36:18;;;;;;;16.45;2.47;;;;;;;;;;5040607;28;20048;-66
2020/12/03 12:38:45;;;;;;;19.65;2.00;;;;;;;;;;5048534;28;20023;-70
2020/12/03 12:41:12;;;;;;;19.85;2.70;;;;;;;;;;5051781;28;20112;-67
2020/12/03 12:43:39;;;;;;;14.30;2.00;;;;;;;;;;5031962;28;20069;-63
2020/12/03 12:46:06;;;;;;;37.60;3.05;;;;;;;;;;5031682;28;20033;-64
2020/12/03 12:48:33;;;;;;;24.05;2.13;;;;;;;;;;5031862;28;20139;-72
2020/12/03 12:51:00;;;;;;;14.73;1.83;;;;;;;;;;5049956;28;20029;-67
2020/12/03 12:53:27;;;;;;;16.02;2.00;;;;;;;;;;5050317;28;20488;-62
2020/12/03 12:55:56;;;;;;;43.17;4.65;;;;;;;;;;5050680;28;20056;-60
2020/12/03 12:58:23;;;;;;;23.85;2.85;;;;;;;;;;5042322;28;20026;-60
2020/12/03 13:00:50;;;;;;;25.23;3.28;;;;;;;;;;5040025;28;20025;-61
2020/12/03 13:03:17;;;;;;;27.52;3.15;;;;;;;;;;5040604;28;20025;-60
2020/12/03 13:05:44;;;;;;;30.92;2.47;;;;;;;;;;5045255;28;20032;-61
2020/12/03 13:08:11;;;;;;;47.53;3.83;;;;;;;;;;5040052;28;20101;-59
2020/12/03 13:10:38;;;;;;;35.25;2.92;;;;;;;;;;5051021;28;20051;-58
2020/12/03 13:13:05;;;;;;;44.45;4.10;;;;;;;;;;5050029;28;20021;-62
2020/12/03 13:15:32;;;;;;;35.80;3.08;;;;;;;;;;5051234;28;20029;-63
2020/12/03 13:17:59;;;;;;;31.45;3.15;;;;;;;;;;5050587;28;20431;-54
2020/12/03 13:20:26;;;;;;;49.75;5.20;;;;;;;;;;5040632;28;20432;-64
2020/12/03 13:22:53;;;;;;;43.45;4.00;;;;;;;;;;5030499;28;20469;-63
2020/12/03 13:25:20;;;;;;;31.35;3.15;;;;;;;;;;5031428;28;20022;-61
2020/12/03 13:27:47;;;;;;;33.90;3.15;;;;;;;;;;5056604;28;20024;-63
2020/12/03 13:30:15;;;;;;;71.70;7.40;;;;;;;;;;5070359;28;20482;-63
2020/12/03 13:32:42;;;;;;;42.10;3.65;;;;;;;;;;5071005;28;20024;-63
2020/12/03 13:35:09;;;;;;;36.00;3.92;;;;;;;;;;5071133;28;20046;-64
2020/12/03 13:37:36;;;;;;;30.58;3.25;;;;;;;;;;5071585;28;20476;-59
2020/12/03 13:40:03;;;;;;;34.47;3.75;;;;;;;;;;5074390;28;20507;-67
2020/12/03 13:42:30;;;;;;;53.17;3.70;;;;;;;;;;5075041;28;20024;-61
2020/12/03 13:44:57;;;;;;;47.60;4.78;;;;;;;;;;5074238;28;20021;-61
2020/12/03 13:47:25;;;;;;;31.73;3.40;;;;;;;;;;5074425;28;20027;-63
2020/12/03 13:49:52;;;;;;;62.58;5.78;;;;;;;;;;5074416;28;20020;-61
2020/12/03 13:52:19;;;;;;;23.27;2.25;;;;;;;;;;5075028;28;20024;-61
2020/12/03 13:54:46;;;;;;;41.80;3.38;;;;;;;;;;5074534;28;20111;-65
2020/12/03 13:57:13;;;;;;;37.05;3.42;;;;;;;;;;5074684;28;20021;-61
2020/12/03 13:59:40;;;;;;;59.65;6.63;;;;;;;;;;5061743;28;20032;-66
2020/12/03 14:02:13;;;;;;;35.00;3.30;;;;;;;;;;5052772;28;20096;-61
2020/12/03 14:04:40;;;;;;;41.08;4.35;;;;;;;;;;5054412;28;20057;-62
2020/12/03 14:07:07;;;;;;;28.45;2.72;;;;;;;;;;5054416;28;20033;-56
2020/12/03 14:09:34;;;;;;;37.83;3.05;;;;;;;;;;5053588;28;20148;-63
2020/12/03 14:12:01;;;;;;;25.10;2.35;;;;;;;;;;5053460;28;20033;-64
2020/12/03 14:14:28;;;;;;;65.22;6.35;;;;;;;;;;5054122;28;20388;-63
2020/12/03 14:16:55;;;;;;;54.35;4.43;;;;;;;;;;5048622;28;20099;-67
2020/12/03 14:19:22;;;;;;;33.08;3.10;;;;;;;;;;5053552;28;20052;-66
2020/12/03 14:21:49;;;;;;;23.23;2.47;;;;;;;;;;5054446;28;20492;-62
2020/12/03 14:24:16;;;;;;;29.77;2.58;;;;;;;;;;5060875;28;20055;-61
2020/12/03 14:26:43;;;;;;;25.92;2.40;;;;;;;;;;5053647;28;20033;-61
2020/12/03 14:29:10;;;;;;;22.20;2.13;;;;;;;;;;5042851;28;20025;-60
2020/12/03 14:31:37;;;;;;;29.50;2.45;;;;;;;;;;5040818;28;20032;-63
2020/12/03 14:34:04;;;;;;;23.95;2.95;;;;;;;;;;5050595;28;20055;-62
2020/12/03 14:36:32;;;;;;;29.98;2.42;;;;;;;;;;5053390;28;20108;-63
2020/12/03 14:38:59;;;;;;;18.65;2.50;;;;;;;;;;5047489;28;20032;-59
2020/12/03 14:41:26;;;;;;;19.88;1.85;;;;;;;;;;5051779;28;20024;-59
2020/12/03 14:43:53;;;;;;;28.50;1.98;;;;;;;;;;5052303;28;20079;-63
2020/12/03 14:46:20;;;;;;;16.38;1.85;;;;;;;;;;5052908;28;20029;-62
2020/12/03 14:48:47;;;;;;;20.52;2.10;;;;;;;;;;5052714;28;20021;-64